Time;durP1;ratioP1;P1;durP2;ratioP2;P2;SDS_P1;SDS_P2;PMS_P1;PMS_P2;Temp;Humidity;BMP_temperature;BMP_pressure;BME280_temperature;BME280_humidity;BME280_pressure;Samples;Min_cycle;Max_cycle;Signal;HPM_P1;HPM_P2
2022/10/31 00:00:52;;;;;;;12.38;3.78;;;12.40;99.90;;;;;;6203934;28;20054;-82
2022/10/31 00:03:54;;;;;;;7.13;2.83;;;12.40;99.90;;;;;;6203918;28;20038;-82
2022/10/31 00:06:56;;;;;;;8.40;3.15;;;12.40;99.90;;;;;;6202980;28;20612;-82
2022/10/31 00:09:59;;;;;;;6.70;2.72;;;12.40;99.90;;;;;;6203733;28;20050;-82
2022/10/31 00:13:01;;;;;;;14.77;3.28;;;12.40;99.90;;;;;;6202725;28;20440;-82
2022/10/31 00:16:02;;;;;;;9.13;3.30;;;12.40;99.90;;;;;;6203891;28;20046;-82
2022/10/31 00:19:06;;;;;;;6.45;2.83;;;12.40;99.90;;;;;;6202776;28;20419;-81
2022/10/31 00:22:08;;;;;;;9.90;2.88;;;12.40;99.90;;;;;;6202983;28;20408;-82
2022/10/31 00:25:11;;;;;;;13.35;3.40;;;12.40;99.90;;;;;;6202242;28;20504;-82
2022/10/31 00:28:13;;;;;;;12.02;4.13;;;12.30;99.90;;;;;;6202434;28;20516;-82
2022/10/31 00:31:15;;;;;;;6.07;2.60;;;12.30;99.90;;;;;;6202891;28;20432;-82
2022/10/31 00:34:16;;;;;;;4.40;2.47;;;12.20;99.90;;;;;;6203483;28;20050;-82
2022/10/31 00:37:18;;;;;;;7.50;2.88;;;12.10;99.90;;;;;;6201534;28;20069;-84
2022/10/31 00:40:21;;;;;;;7.05;2.33;;;12.10;99.90;;;;;;6202962;28;20053;-82
2022/10/31 00:43:23;;;;;;;10.98;3.83;;;12.10;99.90;;;;;;6203087;28;20050;-82
2022/10/31 00:46:25;;;;;;;11.25;2.72;;;12.10;99.90;;;;;;6203538;28;20057;-83
2022/10/31 00:49:26;;;;;;;6.63;2.97;;;12.00;99.90;;;;;;6201538;28;20073;-81
2022/10/31 00:52:28;;;;;;;6.40;3.03;;;12.00;99.90;;;;;;6202894;28;20504;-82
2022/10/31 00:55:31;;;;;;;6.63;2.60;;;12.00;99.90;;;;;;6203676;28;20046;-82
2022/10/31 00:58:33;;;;;;;6.32;3.75;;;11.90;99.90;;;;;;6202748;28;20054;-82
2022/10/31 01:01:34;;;;;;;9.80;3.38;;;11.90;99.90;;;;;;6203131;28;20050;-82
2022/10/31 01:04:36;;;;;;;6.07;2.75;;;11.90;99.90;;;;;;6203171;28;20049;-82
2022/10/31 01:07:38;;;;;;;6.85;2.75;;;11.90;99.90;;;;;;6202413;28;20547;-82
2022/10/31 01:10:41;;;;;;;11.18;2.50;;;11.90;99.90;;;;;;6203589;28;20424;-83
2022/10/31 01:13:43;;;;;;;7.18;3.72;;;11.90;99.90;;;;;;6202677;28;20539;-82
2022/10/31 01:16:45;;;;;;;7.15;2.28;;;11.80;99.90;;;;;;6201636;28;20061;-81
2022/10/31 01:19:46;;;;;;;8.40;2.88;;;11.80;99.90;;;;;;6201401;28;20046;-81
2022/10/31 01:22:48;;;;;;;5.90;2.75;;;11.80;99.90;;;;;;6201689;28;20054;-81
2022/10/31 01:26:00;;;;;;;6.82;2.72;;;11.80;99.90;;;;;;6201616;28;20051;-81
2022/10/31 01:29:05;;;;;;;9.10;3.60;;;11.80;99.90;;;;;;6202205;28;20053;-82
2022/10/31 01:32:07;;;;;;;10.68;2.67;;;11.80;99.90;;;;;;6202242;28;20053;-82
2022/10/31 01:35:09;;;;;;;5.25;2.05;;;11.80;99.90;;;;;;6201198;28;20416;-83
2022/10/31 01:38:10;;;;;;;8.88;2.80;;;11.80;99.90;;;;;;6202248;28;20050;-83
2022/10/31 01:41:15;;;;;;;12.90;4.15;;;11.80;99.90;;;;;;6202480;28;20416;-81
2022/10/31 01:44:52;;;;;;;9.00;3.55;;;11.80;99.90;;;;;;6178507;28;20497;-81
2022/10/31 01:47:54;;;;;;;8.80;3.47;;;11.80;99.90;;;;;;6176499;28;20050;-82
2022/10/31 01:50:56;;;;;;;5.35;2.63;;;11.80;99.90;;;;;;6177000;28;20051;-82
2022/10/31 01:54:02;;;;;;;10.23;3.25;;;11.80;99.90;;;;;;6176956;28;20053;-82
2022/10/31 01:57:07;;;;;;;10.68;2.50;;;11.70;99.90;;;;;;6176754;28;20047;-83
2022/10/31 02:00:11;;;;;;;6.50;3.85;;;11.70;99.90;;;;;;6176501;28;20062;-82
2022/10/31 02:03:13;;;;;;;18.27;2.60;;;11.60;99.90;;;;;;6176773;28;20069;-82
2022/10/31 02:06:25;;;;;;;8.88;3.25;;;11.60;99.90;;;;;;6177196;28;20058;-82
2022/10/31 02:09:29;;;;;;;7.32;3.25;;;11.60;99.90;;;;;;6176131;28;20050;-81
2022/10/31 02:12:33;;;;;;;14.90;3.15;;;11.60;99.90;;;;;;6176069;28;20046;-81
2022/10/31 02:15:37;;;;;;;8.43;3.03;;;11.50;99.90;;;;;;6176534;28;20050;-82
2022/10/31 02:18:38;;;;;;;7.55;3.85;;;11.50;99.90;;;;;;6177221;28;20054;-82
2022/10/31 02:21:48;;;;;;;10.25;3.08;;;11.50;99.90;;;;;;6177552;28;20058;-84
2022/10/31 02:25:04;;;;;;;7.15;3.00;;;11.40;99.90;;;;;;6178242;28;20047;-83
2022/10/31 02:28:36;;;;;;;16.83;3.47;;;11.40;99.90;;;;;;6176796;28;20064;-83
2022/10/31 02:31:45;;;;;;;8.27;3.50;;;11.40;99.90;;;;;;6178438;28;20047;-83
2022/10/31 02:34:53;;;;;;;9.70;2.95;;;11.40;99.90;;;;;;6178715;28;20054;-83
2022/10/31 02:38:01;;;;;;;5.47;2.38;;;11.30;99.90;;;;;;6177983;28;20596;-84
2022/10/31 02:41:12;;;;;;;9.00;3.25;;;11.30;99.90;;;;;;6178131;28;20054;-82
2022/10/31 02:44:20;;;;;;;8.20;3.10;;;11.30;99.90;;;;;;6177645;28;20054;-81
2022/10/31 02:47:30;;;;;;;13.38;4.90;;;11.40;99.90;;;;;;6177622;28;20047;-83
2022/10/31 02:50:34;;;;;;;9.40;3.00;;;11.40;99.90;;;;;;6178507;28;20066;-82
2022/10/31 02:53:37;;;;;;;9.65;2.67;;;11.40;99.90;;;;;;6178777;28;20057;-82
2022/10/31 02:56:38;;;;;;;8.77;3.85;;;11.40;99.90;;;;;;6178829;28;20062;-82
2022/10/31 02:59:55;;;;;;;13.20;3.42;;;11.40;99.90;;;;;;6176958;28;20085;-82
2022/10/31 03:03:06;;;;;;;9.13;3.67;;;11.40;99.90;;;;;;6179920;28;20440;-82
2022/10/31 03:06:14;;;;;;;10.88;3.08;;;11.40;99.90;;;;;;6180532;28;20047;-83
2022/10/31 03:09:21;;;;;;;;;;;11.30;99.90;;;;;;6178492;28;20053;-83
2022/10/31 03:12:28;;;;;;;6.75;2.80;;;11.40;99.90;;;;;;6177821;28;19933;-83
2022/10/31 03:15:33;;;;;;;5.68;2.55;;;11.30;99.90;;;;;;6178514;28;20043;-83
2022/10/31 03:18:40;;;;;;;9.60;2.95;;;11.20;99.90;;;;;;6179429;28;20058;-82
2022/10/31 03:21:45;;;;;;;6.50;3.47;;;11.20;99.90;;;;;;6178869;28;20050;-83
2022/10/31 03:24:48;;;;;;;11.75;2.88;;;11.10;99.90;;;;;;6178532;28;20042;-82
2022/10/31 03:27:52;;;;;;;12.88;3.13;;;11.10;99.90;;;;;;6178819;28;20421;-83
2022/10/31 03:30:55;;;;;;;5.20;2.28;;;11.20;99.90;;;;;;6177757;28;20082;-83
2022/10/31 03:34:01;;;;;;;8.43;2.45;;;11.20;99.90;;;;;;6179538;28;20050;-83
2022/10/31 03:37:07;;;;;;;8.02;2.72;;;11.10;99.90;;;;;;6178268;28;20783;-83
2022/10/31 03:40:11;;;;;;;6.35;2.40;;;11.10;99.90;;;;;;6177928;28;20051;-83
2022/10/31 03:43:17;;;;;;;5.03;2.40;;;11.10;99.90;;;;;;6178157;28;20054;-82
2022/10/31 03:46:19;;;;;;;8.27;3.20;;;11.00;99.90;;;;;;6178559;28;20051;-82
2022/10/31 03:49:22;;;;;;;6.75;2.45;;;11.00;99.90;;;;;;6178302;28;20047;-83
2022/10/31 03:52:28;;;;;;;8.43;2.70;;;11.00;99.90;;;;;;6179425;28;20051;-82
2022/10/31 03:55:38;;;;;;;11.20;2.67;;;11.00;99.90;;;;;;6179166;28;20043;-82
2022/10/31 03:58:46;;;;;;;6.95;2.38;;;10.90;99.90;;;;;;6178261;28;20077;-83
2022/10/31 04:01:52;;;;;;;8.50;2.42;;;11.00;99.90;;;;;;6177607;28;20058;-83
2022/10/31 04:04:56;;;;;;;9.15;3.90;;;10.90;99.90;;;;;;6178138;28;20192;-83
2022/10/31 04:08:00;;;;;;;9.25;2.95;;;10.90;99.90;;;;;;6178718;28;20054;-82
2022/10/31 04:11:03;;;;;;;6.22;3.13;;;10.90;99.90;;;;;;6179816;28;20062;-82
2022/10/31 04:14:07;;;;;;;12.07;3.22;;;10.90;99.90;;;;;;6182764;28;20055;-83
2022/10/31 04:17:12;;;;;;;8.98;3.08;;;10.90;99.90;;;;;;6181907;28;20050;-83
2022/10/31 04:20:18;;;;;;;8.68;2.25;;;10.90;99.90;;;;;;6180994;28;20142;-83
2022/10/31 04:23:21;;;;;;;12.77;4.80;;;10.90;99.90;;;;;;6181837;28;20042;-83
2022/10/31 04:26:23;;;;;;;7.90;2.35;;;10.90;99.90;;;;;;6180024;28;20046;-83
2022/10/31 04:29:25;;;;;;;14.63;3.53;;;10.90;99.90;;;;;;6179445;28;20062;-83
2022/10/31 04:32:26;;;;;;;13.93;4.32;;;10.80;99.90;;;;;;6178694;28;20069;-83
2022/10/31 04:35:29;;;;;;;8.00;2.35;;;10.80;99.90;;;;;;6178722;28;20038;-83
2022/10/31 04:38:31;;;;;;;6.47;2.72;;;10.80;99.90;;;;;;6178445;28;20051;-83
2022/10/31 04:41:33;;;;;;;6.10;2.50;;;10.80;99.90;;;;;;6179243;28;20053;-83
2022/10/31 04:44:34;;;;;;;7.35;2.78;;;10.60;99.90;;;;;;6179266;28;20414;-83
2022/10/31 04:47:36;;;;;;;4.28;2.05;;;10.50;99.90;;;;;;6179264;28;20547;-83
2022/10/31 04:50:39;;;;;;;9.82;2.65;;;10.50;99.90;;;;;;6179295;28;20413;-83
2022/10/31 04:53:41;;;;;;;15.75;3.05;;;10.50;99.90;;;;;;6178647;28;20382;-83
2022/10/31 04:56:43;;;;;;;14.07;3.58;;;10.50;99.90;;;;;;6178454;28;20069;-82
2022/10/31 04:59:44;;;;;;;7.43;2.25;;;10.40;99.90;;;;;;6178587;28;20050;-84
2022/10/31 05:02:46;;;;;;;3.88;2.25;;;10.40;99.90;;;;;;6180808;28;20523;-83
2022/10/31 05:05:50;;;;;;;14.90;2.38;;;10.40;99.90;;;;;;6179032;28;20047;-83
2022/10/31 05:08:52;;;;;;;8.88;2.60;;;10.40;99.90;;;;;;6180028;28;20046;-83
2022/10/31 05:11:53;;;;;;;5.68;2.28;;;10.40;99.90;;;;;;6182223;28;20046;-82
2022/10/31 05:14:55;;;;;;;7.55;2.80;;;10.40;99.90;;;;;;6182272;28;20597;-83
2022/10/31 05:17:57;;;;;;;11.65;2.95;;;10.30;99.90;;;;;;6183045;28;20059;-83
2022/10/31 05:21:00;;;;;;;6.68;2.60;;;10.30;99.90;;;;;;6180483;28;20046;-83
2022/10/31 05:24:02;;;;;;;8.20;2.80;;;10.30;99.90;;;;;;6178347;28;20053;-82
2022/10/31 05:27:04;;;;;;;13.43;3.45;;;10.30;99.90;;;;;;6183456;28;20050;-81
2022/10/31 05:30:07;;;;;;;6.45;2.83;;;10.30;99.90;;;;;;6185934;28;20059;-83
2022/10/31 05:33:08;;;;;;;6.93;2.63;;;10.30;99.90;;;;;;6183783;28;20042;-82
2022/10/31 05:36:11;;;;;;;6.30;2.83;;;10.30;99.90;;;;;;6185681;28;20043;-83
2022/10/31 05:39:13;;;;;;;10.40;2.50;;;10.30;99.90;;;;;;6185211;28;20047;-81
2022/10/31 05:42:14;;;;;;;8.50;3.17;;;10.30;99.90;;;;;;6188539;28;20062;-82
2022/10/31 05:45:18;;;;;;;9.77;3.28;;;10.20;99.90;;;;;;6188060;28;20047;-83
2022/10/31 05:48:19;;;;;;;13.35;4.10;;;10.20;99.90;;;;;;6187363;28;20051;-82
2022/10/31 05:51:22;;;;;;;9.68;2.70;;;10.20;99.90;;;;;;6187983;28;20053;-82
2022/10/31 05:54:24;;;;;;;9.05;3.22;;;10.20;99.90;;;;;;6188622;28;20051;-82
2022/10/31 05:57:26;;;;;;;12.15;3.10;;;10.20;99.90;;;;;;6187428;28;20424;-82
2022/10/31 06:00:28;;;;;;;6.47;3.33;;;10.20;99.90;;;;;;6186635;28;20421;-81
2022/10/31 06:03:30;;;;;;;11.82;3.80;;;10.20;99.90;;;;;;6187829;28;20072;-82
2022/10/31 06:06:33;;;;;;;7.70;3.10;;;10.20;99.90;;;;;;6187753;28;20426;-82
2022/10/31 06:09:35;;;;;;;7.53;2.30;;;10.20;99.90;;;;;;6186304;28;20054;-83
2022/10/31 06:12:38;;;;;;;8.25;2.80;;;10.20;99.90;;;;;;6185511;28;20047;-82
2022/10/31 06:15:39;;;;;;;13.98;2.55;;;10.20;99.90;;;;;;6185681;28;20043;-82
2022/10/31 06:18:41;;;;;;;11.43;3.08;;;10.30;99.90;;;;;;6185675;28;20058;-83
2022/10/31 06:21:44;;;;;;;14.65;3.08;;;10.30;99.90;;;;;;6184217;28;20050;-82
2022/10/31 06:24:46;;;;;;;9.90;5.55;;;10.40;99.90;;;;;;6180794;28;20054;-82
2022/10/31 06:27:47;;;;;;;8.73;2.95;;;10.50;99.90;;;;;;6180195;28;20043;-83
2022/10/31 06:30:49;;;;;;;11.70;3.70;;;10.60;99.90;;;;;;6181120;28;20050;-82
2022/10/31 06:33:51;;;;;;;16.23;3.08;;;10.70;99.90;;;;;;6183505;28;20054;-82
2022/10/31 06:36:53;;;;;;;10.02;3.25;;;10.80;99.90;;;;;;6184291;28;20520;-83
2022/10/31 06:39:55;;;;;;;8.35;3.05;;;10.90;99.90;;;;;;6183147;28;20055;-82
2022/10/31 06:42:58;;;;;;;8.30;2.72;;;11.00;99.90;;;;;;6189986;28;20062;-81
2022/10/31 06:46:03;;;;;;;8.45;5.88;;;11.10;99.90;;;;;;6184302;28;20390;-82
2022/10/31 06:49:05;;;;;;;11.85;2.25;;;11.20;99.90;;;;;;6183858;28;20520;-82
2022/10/31 06:52:08;;;;;;;7.63;2.97;;;11.40;99.90;;;;;;6182115;28;20509;-82
2022/10/31 06:55:10;;;;;;;4.53;2.42;;;11.50;99.90;;;;;;6180929;28;20071;-83
2022/10/31 06:58:12;;;;;;;6.97;2.88;;;11.70;99.90;;;;;;6180925;28;20058;-82
2022/10/31 07:01:13;;;;;;;10.32;3.10;;;11.80;99.90;;;;;;6179946;28;20042;-82
2022/10/31 07:04:15;;;;;;;10.77;3.17;;;12.00;99.90;;;;;;6179450;28;20081;-83
2022/10/31 07:07:21;;;;;;;7.43;3.28;;;12.10;99.90;;;;;;6178239;28;20901;-82
2022/10/31 07:10:23;;;;;;;19.13;3.97;;;12.20;99.90;;;;;;6179960;28;20061;-83
2022/10/31 07:13:25;;;;;;;15.23;2.58;;;12.40;99.90;;;;;;6177464;28;20047;-83
2022/10/31 07:16:27;;;;;;;12.15;3.03;;;12.50;99.90;;;;;;6178667;28;20050;-83
2022/10/31 07:19:28;;;;;;;13.65;3.60;;;12.70;99.90;;;;;;6179523;28;20043;-83
2022/10/31 07:22:35;;;;;;;18.75;3.95;;;12.80;99.90;;;;;;6179249;28;20054;-83
2022/10/31 07:25:36;;;;;;;14.90;2.83;;;12.90;99.90;;;;;;6180159;28;20050;-83
2022/10/31 07:28:38;;;;;;;12.52;2.90;;;13.00;99.90;;;;;;6178378;28;20065;-82
2022/10/31 07:31:40;;;;;;;14.43;3.33;;;13.10;99.90;;;;;;6179364;28;20421;-82
2022/10/31 07:34:41;;;;;;;18.45;3.85;;;13.20;99.90;;;;;;6179647;28;20444;-82
2022/10/31 07:37:44;;;;;;;17.10;2.97;;;13.40;99.90;;;;;;6177770;28;20051;-82
2022/10/31 07:40:51;;;;;;;14.30;4.63;;;13.60;99.90;;;;;;6179333;28;20062;-82
2022/10/31 07:43:53;;;;;;;11.93;2.80;;;13.80;99.90;;;;;;6180666;28;20497;-83
2022/10/31 07:46:54;;;;;;;10.13;2.75;;;14.00;99.90;;;;;;6155148;28;20051;-82
2022/10/31 07:49:56;;;;;;;12.40;3.75;;;14.20;99.90;;;;;;6182982;28;20050;-82
2022/10/31 07:53:04;;;;;;;13.85;4.07;;;14.40;99.90;;;;;;6199119;28;20050;-83
2022/10/31 07:56:06;;;;;;;8.60;2.85;;;14.60;99.90;;;;;;6205746;28;20066;-83
2022/10/31 07:59:08;;;;;;;5.07;2.42;;;14.80;99.90;;;;;;6184931;28;20054;-83
2022/10/31 08:02:09;;;;;;;8.20;2.42;;;15.00;99.90;;;;;;6158636;28;20055;-83
2022/10/31 08:05:11;;;;;;;8.45;2.38;;;15.30;99.90;;;;;;6159685;28;20055;-83
2022/10/31 08:08:15;;;;;;;5.75;3.15;;;15.60;99.90;;;;;;6169368;28;20054;-84
2022/10/31 08:11:16;;;;;;;4.70;2.17;;;16.00;99.90;;;;;;6179127;28;20910;-83
2022/10/31 08:14:18;;;;;;;7.10;2.75;;;16.30;99.90;;;;;;6159720;29;20413;-84
2022/10/31 08:17:20;;;;;;;12.43;2.38;;;16.60;99.90;;;;;;6177270;28;20472;-84
2022/10/31 08:20:22;;;;;;;10.05;2.65;;;16.80;99.90;;;;;;6168859;28;20429;-84
2022/10/31 08:23:25;;;;;;;10.18;2.75;;;17.00;99.90;;;;;;6164979;28;20524;-84
2022/10/31 08:26:27;;;;;;;14.00;2.88;;;17.20;99.90;;;;;;6158252;29;20051;-84
2022/10/31 08:29:28;;;;;;;8.43;3.45;;;17.40;99.90;;;;;;6157826;28;20047;-84
2022/10/31 08:32:30;;;;;;;10.23;3.35;;;17.60;99.90;;;;;;6158250;28;20051;-84
2022/10/31 08:35:32;;;;;;;6.57;2.50;;;17.90;99.90;;;;;;6159170;28;20043;-83
2022/10/31 08:38:35;;;;;;;5.22;2.60;;;18.30;99.90;;;;;;6158769;28;20043;-84
2022/10/31 08:41:36;;;;;;;10.00;3.03;;;18.50;99.50;;;;;;6157793;28;20059;-84
2022/10/31 08:44:38;;;;;;;10.95;5.55;;;18.90;98.90;;;;;;6156710;28;20051;-84
2022/10/31 08:47:40;;;;;;;10.00;3.08;;;19.30;98.30;;;;;;6156054;28;20055;-84
2022/10/31 08:50:42;;;;;;;9.10;3.75;;;19.80;97.60;;;;;;6166277;28;20058;-84
2022/10/31 08:53:45;;;;;;;9.23;3.05;;;20.10;97.00;;;;;;6175016;28;20046;-84
2022/10/31 08:56:47;;;;;;;7.00;2.83;;;20.20;96.40;;;;;;6180169;28;20050;-84
2022/10/31 08:59:48;;;;;;;3.83;2.33;;;20.40;96.10;;;;;;6179958;28;20058;-84
2022/10/31 09:02:56;;;;;;;4.65;2.85;;;20.60;95.50;;;;;;6158777;28;20061;-84
2022/10/31 09:05:59;;;;;;;6.55;2.50;;;20.70;94.90;;;;;;6158318;29;20055;-83
2022/10/31 09:09:02;;;;;;;5.18;2.58;;;20.90;94.60;;;;;;6174782;28;20606;-82
2022/10/31 09:12:04;;;;;;;13.27;3.22;;;21.00;94.00;;;;;;6172904;28;20051;-83
2022/10/31 09:15:07;;;;;;;6.07;2.78;;;21.00;93.70;;;;;;6159073;28;20059;-84
2022/10/31 09:18:09;;;;;;;6.30;2.55;;;21.00;93.40;;;;;;6180475;28;20101;-84
2022/10/31 09:21:11;;;;;;;10.27;2.60;;;21.00;93.20;;;;;;6169943;28;20043;-83
2022/10/31 09:24:14;;;;;;;10.10;2.95;;;21.10;92.80;;;;;;6177451;28;20704;-84
2022/10/31 09:27:16;;;;;;;9.68;2.60;;;21.10;92.50;;;;;;6181012;28;20053;-84
2022/10/31 09:30:17;;;;;;;7.47;2.53;;;21.20;92.60;;;;;;6181639;28;20051;-84
2022/10/31 09:33:19;;;;;;;4.65;2.53;;;21.30;92.00;;;;;;6180520;28;20054;-84
2022/10/31 09:36:21;;;;;;;4.50;1.90;;;21.50;91.70;;;;;;6179134;28;20047;-84
2022/10/31 09:39:24;;;;;;;8.10;2.50;;;21.60;91.40;;;;;;6180108;28;20052;-84
2022/10/31 09:42:49;;;;;;;6.82;3.15;;;21.70;90.90;;;;;;6183157;28;20050;-83
2022/10/31 09:45:59;;;;;;;5.72;2.60;;;21.80;90.70;;;;;;6181927;28;20047;-84
2022/10/31 09:49:20;;;;;;;5.60;2.13;;;21.90;90.10;;;;;;6175888;28;20055;-84
2022/10/31 09:52:27;;;;;;;6.88;1.83;;;21.90;90.10;;;;;;6166399;28;20043;-84
2022/10/31 09:55:43;;;;;;;6.38;2.88;;;21.90;90.20;;;;;;6180974;28;20043;-84
2022/10/31 09:58:48;;;;;;;5.70;2.05;;;22.00;90.00;;;;;;6180894;28;20113;-84
2022/10/31 10:01:55;;;;;;;7.85;3.40;;;22.00;89.20;;;;;;6177841;28;20540;-83
2022/10/31 10:05:00;;;;;;;8.60;2.53;;;21.90;88.90;;;;;;6173164;28;20054;-84
2022/10/31 10:08:09;;;;;;;6.93;2.55;;;21.90;89.10;;;;;;6170825;28;20047;-84
2022/10/31 10:11:46;;;;;;;10.05;2.47;;;22.00;89.10;;;;;;6157516;28;20521;-82
2022/10/31 10:15:01;;;;;;;6.57;2.60;;;22.00;88.60;;;;;;6178143;28;20054;-83
2022/10/31 10:18:12;;;;;;;3.83;2.35;;;22.00;88.40;;;;;;6177046;28;20080;-82
2022/10/31 10:21:27;;;;;;;8.48;2.65;;;22.00;88.00;;;;;;6184576;28;20055;-83
2022/10/31 10:24:41;;;;;;;10.15;2.60;;;21.90;88.00;;;;;;6198983;28;20053;-82
2022/10/31 10:27:51;;;;;;;7.32;2.38;;;21.90;88.00;;;;;;6200629;28;20053;-83
2022/10/31 10:30:59;;;;;;;7.38;2.67;;;22.00;88.10;;;;;;6201064;28;20054;-82
2022/10/31 10:34:02;;;;;;;;;;;22.10;87.70;;;;;;6201798;28;20051;-82
2022/10/31 10:37:09;;;;;;;6.40;2.45;;;22.20;87.60;;;;;;6199742;28;20264;-83
2022/10/31 10:40:17;;;;;;;9.60;2.10;;;22.20;87.00;;;;;;6200624;28;20050;-83
2022/10/31 10:43:23;;;;;;;14.65;2.17;;;22.30;86.70;;;;;;6200315;28;20042;-84
2022/10/31 10:49:53;;;;;;;10.10;2.40;;;22.50;86.00;;;;;;6197932;28;20043;-82
2022/10/31 10:53:02;;;;;;;7.95;2.35;;;22.50;85.50;;;;;;6193501;28;20053;-84
2022/10/31 10:56:13;;;;;;;6.45;2.08;;;22.50;85.10;;;;;;6199976;28;20046;-83
2022/10/31 10:59:21;;;;;;;8.15;2.10;;;22.60;84.80;;;;;;6200311;28;20046;-82
2022/10/31 11:02:25;;;;;;;13.32;2.38;;;22.50;84.50;;;;;;6196866;28;20046;-84
2022/10/31 11:05:35;;;;;;;12.23;5.15;;;22.60;84.40;;;;;;6175666;28;20532;-84
2022/10/31 11:08:37;;;;;;;9.75;2.40;;;22.60;84.00;;;;;;6175211;28;20047;-83
2022/10/31 11:11:39;;;;;;;5.50;2.58;;;22.70;83.60;;;;;;6175742;28;20054;-82
2022/10/31 11:14:47;;;;;;;21.73;2.97;;;22.60;83.30;;;;;;6176524;28;20051;-83
2022/10/31 11:17:51;;;;;;;6.68;2.17;;;22.60;83.20;;;;;;6175740;28;20477;-83
2022/10/31 11:20:55;;;;;;;5.78;1.80;;;22.60;83.00;;;;;;6184666;28;20066;-84
2022/10/31 11:24:03;;;;;;;9.88;3.17;;;22.60;82.90;;;;;;6199954;28;20550;-82
2022/10/31 11:27:14;;;;;;;7.85;2.35;;;22.60;82.90;;;;;;6204946;28;20295;-83
2022/10/31 11:30:18;;;;;;;9.80;2.47;;;22.70;82.70;;;;;;6205472;28;20512;-83
2022/10/31 11:33:24;;;;;;;11.15;2.22;;;22.70;82.70;;;;;;6204586;28;20057;-83
2022/10/31 11:36:28;;;;;;;8.25;1.95;;;22.60;82.60;;;;;;6204918;28;20046;-84
2022/10/31 11:39:30;;;;;;;5.97;2.15;;;22.70;82.60;;;;;;6204594;28;20045;-85
2022/10/31 11:42:39;;;;;;;4.05;2.17;;;22.70;82.50;;;;;;6205605;28;20046;-82
2022/10/31 11:45:42;;;;;;;6.70;2.30;;;22.70;82.40;;;;;;6205557;28;20046;-83
2022/10/31 11:48:48;;;;;;;9.70;2.22;;;22.70;82.40;;;;;;6205034;28;20057;-83
2022/10/31 11:51:55;;;;;;;5.50;2.15;;;22.70;82.40;;;;;;6196440;28;20073;-83
2022/10/31 11:55:00;;;;;;;5.53;1.75;;;22.80;82.50;;;;;;6180326;28;20497;-84
2022/10/31 11:58:02;;;;;;;4.90;1.65;;;22.80;82.30;;;;;;6180423;28;20050;-83
2022/10/31 12:01:06;;;;;;;5.13;1.88;;;22.70;82.10;;;;;;6179979;28;20162;-82
2022/10/31 12:04:12;;;;;;;4.97;1.75;;;22.40;82.40;;;;;;6178713;28;20050;-82
2022/10/31 12:07:14;;;;;;;5.05;2.05;;;22.10;82.90;;;;;;6178970;28;20047;-83
2022/10/31 12:10:16;;;;;;;7.15;1.67;;;22.00;83.50;;;;;;6179959;28;20046;-83
2022/10/31 12:13:33;;;;;;;7.78;2.55;;;22.10;83.60;;;;;;6179511;28;20046;-82
2022/10/31 12:16:42;;;;;;;7.60;1.73;;;22.20;83.30;;;;;;6180056;28;20121;-84
2022/10/31 12:19:51;;;;;;;6.97;1.58;;;22.20;83.10;;;;;;6188123;28;20050;-84
2022/10/31 12:22:59;;;;;;;4.78;1.58;;;22.00;83.40;;;;;;6186952;28;20055;-82
2022/10/31 12:26:14;;;;;;;15.02;3.95;;;21.90;83.80;;;;;;6180088;28;20055;-82
2022/10/31 12:29:34;;;;;;;4.25;1.90;;;21.90;84.10;;;;;;6179847;28;20047;-82
2022/10/31 12:32:50;;;;;;;6.97;2.33;;;22.00;84.30;;;;;;6179518;28;20501;-82
2022/10/31 12:35:59;;;;;;;9.85;2.08;;;22.00;84.10;;;;;;6179444;28;20054;-82
2022/10/31 12:39:26;;;;;;;11.25;2.63;;;21.80;84.30;;;;;;6178683;28;20051;-82
2022/10/31 12:42:43;;;;;;;5.88;1.52;;;21.80;84.40;;;;;;6173412;28;20105;-82
2022/10/31 12:45:55;;;;;;;6.40;2.28;;;21.70;84.50;;;;;;6179268;28;20042;-84
2022/10/31 12:49:32;;;;;;;9.85;2.03;;;21.40;84.90;;;;;;6181274;28;20046;-83
2022/10/31 12:52:49;;;;;;;10.55;3.25;;;21.30;86.10;;;;;;6183668;28;20057;-82
2022/10/31 12:56:02;;;;;;;6.90;2.22;;;21.30;86.80;;;;;;6202335;28;20051;-84
2022/10/31 12:59:11;;;;;;;7.18;2.00;;;21.70;87.10;;;;;;6202596;28;20050;-83
2022/10/31 13:02:20;;;;;;;7.30;2.00;;;22.20;86.90;;;;;;6202740;28;20051;-82
2022/10/31 13:05:30;;;;;;;8.23;1.70;;;22.90;85.70;;;;;;6189679;28;20058;-82
2022/10/31 13:08:40;;;;;;;8.35;2.25;;;23.70;84.60;;;;;;6154196;28;20122;-81
2022/10/31 13:11:46;;;;;;;9.50;1.50;;;24.40;82.80;;;;;;6154097;29;20417;-82
2022/10/31 13:14:51;;;;;;;8.38;1.65;;;25.00;81.00;;;;;;6155057;29;20055;-83
2022/10/31 13:17:56;;;;;;;5.43;1.75;;;25.40;79.50;;;;;;6154320;28;20048;-82
2022/10/31 13:21:03;;;;;;;4.55;1.38;;;25.70;78.40;;;;;;6183691;28;20096;-83
2022/10/31 13:24:12;;;;;;;3.95;1.58;;;25.90;77.70;;;;;;6201905;28;20066;-82
2022/10/31 13:27:19;;;;;;;8.93;2.22;;;26.10;76.90;;;;;;6202895;28;20042;-83
2022/10/31 13:30:23;;;;;;;11.85;2.97;;;26.20;76.30;;;;;;6202820;28;20046;-83
2022/10/31 13:33:29;;;;;;;12.10;2.97;;;26.30;75.60;;;;;;6201169;28;20555;-83
2022/10/31 13:36:37;;;;;;;12.02;2.17;;;26.40;74.90;;;;;;6201358;28;20053;-82
2022/10/31 13:39:48;;;;;;;;;;;26.50;74.30;;;;;;6201151;28;20050;-81
2022/10/31 13:42:58;;;;;;;7.22;2.33;;;26.70;75.20;;;;;;6198456;28;19949;-82
2022/10/31 13:45:59;;;;;;;8.10;1.75;;;26.90;73.50;;;;;;6181608;28;20078;-83
2022/10/31 13:49:01;;;;;;;10.38;2.25;;;27.00;72.40;;;;;;6193764;28;20050;-84
2022/10/31 13:52:22;;;;;;;10.30;2.90;;;27.00;71.70;;;;;;6191534;28;20575;-83
2022/10/31 13:55:38;;;;;;;65.07;27.83;;;27.00;71.20;;;;;;6206052;28;20057;-82
2022/10/31 13:58:58;;;;;;;34.30;18.92;;;26.80;70.10;;;;;;6178360;28;20050;-83
2022/10/31 14:02:02;;;;;;;46.90;28.55;;;26.40;69.90;;;;;;6175379;28;20055;-83
2022/10/31 14:05:07;;;;;;;27.83;15.60;;;25.90;70.00;;;;;;6175581;28;20146;-83
2022/10/31 14:08:21;;;;;;;11.73;5.88;;;25.40;70.50;;;;;;6175265;28;20051;-83
2022/10/31 14:11:27;;;;;;;12.52;2.97;;;24.90;71.30;;;;;;6176628;28;20058;-83
2022/10/31 14:14:34;;;;;;;9.38;2.90;;;24.50;72.10;;;;;;6177682;28;20054;-83
2022/10/31 14:17:45;;;;;;;6.85;1.85;;;24.20;72.80;;;;;;6179836;28;20055;-82
2022/10/31 14:20:47;;;;;;;10.93;2.75;;;23.80;73.40;;;;;;6190785;28;20127;-82
2022/10/31 14:23:51;;;;;;;12.18;2.53;;;23.50;73.80;;;;;;6206026;28;20052;-82
2022/10/31 14:26:54;;;;;;;6.53;2.67;;;22.90;74.60;;;;;;6206437;28;20059;-81
2022/10/31 14:30:07;;;;;;;3.75;1.50;;;22.60;75.90;;;;;;6206527;28;20054;-82
2022/10/31 14:33:17;;;;;;;4.35;1.77;;;22.50;76.60;;;;;;6205260;28;20405;-82
2022/10/31 14:36:26;;;;;;;11.25;2.72;;;22.40;77.50;;;;;;6206487;28;20046;-82
2022/10/31 14:39:35;;;;;;;18.15;2.53;;;22.30;78.10;;;;;;6205623;28;20047;-82
2022/10/31 14:42:49;;;;;;;6.90;1.77;;;22.20;78.20;;;;;;6205966;28;20058;-83
2022/10/31 14:46:00;;;;;;;9.02;2.15;;;22.20;78.40;;;;;;6205725;28;20047;-82
2022/10/31 14:49:32;;;;;;;8.52;2.65;;;22.20;78.20;;;;;;6204108;28;20412;-81
2022/10/31 14:52:37;;;;;;;9.23;3.42;;;22.00;78.50;;;;;;6197234;28;20053;-82
2022/10/31 14:55:45;;;;;;;8.48;2.40;;;21.60;78.80;;;;;;6204168;28;20042;-83
2022/10/31 14:58:48;;;;;;;5.10;1.77;;;21.40;80.60;;;;;;6201374;28;20046;-84
2022/10/31 15:01:57;;;;;;;15.75;2.63;;;21.20;80.40;;;;;;6201070;28;20125;-84
2022/10/31 15:04:59;;;;;;;5.20;2.38;;;20.90;81.30;;;;;;6201306;28;20474;-84
2022/10/31 15:08:01;;;;;;;10.57;2.28;;;20.80;82.00;;;;;;6199671;28;20042;-84
2022/10/31 15:11:17;;;;;;;20.27;2.65;;;20.70;82.50;;;;;;6202688;28;20057;-84
2022/10/31 15:14:24;;;;;;;12.18;2.42;;;20.40;83.30;;;;;;6203720;28;20050;-84
2022/10/31 15:17:27;;;;;;;11.95;3.03;;;20.00;84.30;;;;;;6212423;28;20053;-83
2022/10/31 15:20:30;;;;;;;10.02;2.47;;;19.80;85.40;;;;;;6205973;28;20054;-84
2022/10/31 15:23:32;;;;;;;4.53;1.92;;;19.60;86.20;;;;;;6209163;28;20046;-84
2022/10/31 15:26:40;;;;;;;4.28;2.22;;;19.30;87.00;;;;;;6206641;28;20050;-84
2022/10/31 15:29:52;;;;;;;10.50;3.15;;;19.10;88.10;;;;;;6207056;28;20046;-84
2022/10/31 15:32:54;;;;;;;14.43;4.47;;;19.00;89.00;;;;;;6206092;28;20043;-84
2022/10/31 15:35:58;;;;;;;7.85;2.78;;;18.90;89.40;;;;;;6206450;28;20050;-83
2022/10/31 15:39:00;;;;;;;9.85;3.30;;;18.70;90.00;;;;;;6203140;28;20057;-83
2022/10/31 15:42:03;;;;;;;5.68;3.00;;;18.70;90.30;;;;;;6202953;28;20046;-83
2022/10/31 15:45:17;;;;;;;12.48;2.60;;;18.60;90.50;;;;;;6205830;28;20054;-84
2022/10/31 15:48:24;;;;;;;6.20;2.70;;;18.50;90.70;;;;;;6203889;28;20519;-84
2022/10/31 15:51:29;;;;;;;12.07;3.53;;;18.40;91.00;;;;;;6193608;28;20116;-84
2022/10/31 15:54:30;;;;;;;8.68;2.30;;;18.20;91.60;;;;;;6199536;28;20054;-84
2022/10/31 15:57:34;;;;;;;10.32;2.42;;;18.10;91.60;;;;;;6177658;28;20534;-83
2022/10/31 16:00:38;;;;;;;11.20;2.85;;;18.00;91.90;;;;;;6178278;28;20043;-84
2022/10/31 16:03:41;;;;;;;5.50;2.72;;;18.00;92.00;;;;;;6178618;28;20583;-84